Time;durP1;ratioP1;P1;durP2;ratioP2;P2;SDS_P1;SDS_P2;PMS_P1;PMS_P2;Temp;Humidity;BMP_temperature;BMP_pressure;BME280_temperature;BME280_humidity;BME280_pressure;Samples;Min_cycle;Max_cycle;Signal;HPM_P1;HPM_P2
2022/11/10 00:00:13;;;;;;;9.27;4.10;;;11.30;1.00;;;;;;5128117;27;20467;-61
2022/11/10 00:02:42;;;;;;;6.13;3.57;;;11.40;1.00;;;;;;5137977;27;20923;-60
2022/11/10 00:05:11;;;;;;;10.70;3.20;;;11.40;1.00;;;;;;5137513;27;20467;-61
2022/11/10 00:07:39;;;;;;;13.33;3.73;;;11.50;1.00;;;;;;5138462;27;20508;-61
2022/11/10 00:10:07;;;;;;;4.90;3.20;;;11.50;1.00;;;;;;5138360;27;20462;-59
2022/11/10 00:12:44;;;;;;;8.53;3.57;;;11.40;1.00;;;;;;5138506;27;20463;-57
2022/11/10 00:17:58;;;;;;;7.60;3.07;;;11.40;1.00;;;;;;5137881;27;20620;-56
2022/11/10 00:20:28;;;;;;;5.47;3.57;;;11.40;1.00;;;;;;5138273;27;20525;-58
2022/11/10 00:22:55;;;;;;;8.33;4.40;;;11.50;1.00;;;;;;5138329;27;20874;-59
2022/11/10 00:25:23;;;;;;;5.00;3.00;;;11.50;1.00;;;;;;5137657;27;20462;-60
2022/11/10 00:27:52;;;;;;;8.13;3.40;;;11.50;1.00;;;;;;5138132;28;20917;-58
2022/11/10 00:30:22;;;;;;;9.63;4.33;;;11.40;1.00;;;;;;5138267;28;20768;-57
2022/11/10 00:32:51;;;;;;;10.87;4.60;;;11.40;1.00;;;;;;5138147;27;20463;-59
2022/11/10 00:35:19;;;;;;;10.57;3.50;;;11.40;1.00;;;;;;5137615;28;20847;-60
2022/11/10 00:37:49;;;;;;;5.87;2.87;;;11.30;1.00;;;;;;5137759;28;20497;-60
2022/11/10 00:40:19;;;;;;;8.10;3.67;;;11.40;1.00;;;;;;5138046;28;20519;-60
2022/11/10 00:42:50;;;;;;;10.33;3.73;;;11.30;1.00;;;;;;5135566;28;20895;-60
2022/11/10 00:45:17;;;;;;;11.13;4.47;;;11.30;1.00;;;;;;5137579;28;20458;-60
2022/11/10 00:47:45;;;;;;;9.27;3.90;;;11.30;1.00;;;;;;5137729;28;20462;-58
2022/11/10 00:50:13;;;;;;;11.00;3.70;;;11.20;1.00;;;;;;5138015;27;20481;-59
2022/11/10 00:52:40;;;;;;;10.37;4.00;;;11.20;1.00;;;;;;5124836;27;20485;-60
2022/11/10 00:55:09;;;;;;;13.40;4.37;;;11.20;1.00;;;;;;5116858;28;20465;-60
2022/11/10 00:57:36;;;;;;;8.50;3.57;;;11.20;1.00;;;;;;5118459;28;20506;-61
2022/11/10 01:00:07;;;;;;;6.17;3.30;;;11.10;1.00;;;;;;5117530;28;20561;-58
2022/11/10 01:02:34;;;;;;;9.17;2.87;;;11.10;1.00;;;;;;5117202;28;20458;-58
2022/11/10 01:05:01;;;;;;;10.33;3.23;;;11.10;1.00;;;;;;5117335;28;20434;-58
2022/11/10 01:07:28;;;;;;;10.07;4.10;;;11.00;1.00;;;;;;5116893;28;20549;-60
2022/11/10 01:09:55;;;;;;;11.50;4.07;;;11.00;1.00;;;;;;5117239;28;20438;-60
2022/11/10 01:12:24;;;;;;;6.03;3.20;;;10.90;1.00;;;;;;5117329;28;20909;-60
2022/11/10 01:14:51;;;;;;;9.07;3.60;;;10.90;1.00;;;;;;5117514;28;20768;-59
2022/11/10 01:17:21;;;;;;;11.03;3.50;;;10.80;1.00;;;;;;5116934;28;20850;-58
2022/11/10 01:19:48;;;;;;;8.07;3.13;;;10.80;1.00;;;;;;5116943;28;20764;-57
2022/11/10 01:22:15;;;;;;;10.33;4.10;;;10.80;1.00;;;;;;5117056;28;20459;-60
2022/11/10 01:24:43;;;;;;;8.27;3.33;;;10.80;1.00;;;;;;5117146;28;20465;-60
2022/11/10 01:27:10;;;;;;;9.80;3.30;;;10.80;1.00;;;;;;5116910;28;20836;-58
2022/11/10 01:29:39;;;;;;;8.93;3.40;;;10.90;1.00;;;;;;5116821;28;20463;-59
2022/11/10 01:32:09;;;;;;;9.97;3.60;;;10.90;1.00;;;;;;5124147;28;20464;-60
2022/11/10 01:34:41;;;;;;;10.67;3.67;;;10.80;1.00;;;;;;5135674;28;20454;-60
2022/11/10 01:37:09;;;;;;;11.07;3.70;;;10.80;1.00;;;;;;5136895;27;20464;-59
2022/11/10 01:39:37;;;;;;;11.53;3.37;;;10.80;1.00;;;;;;5138309;27;20450;-60
2022/11/10 01:42:07;;;;;;;8.23;3.70;;;10.90;1.00;;;;;;5140256;27;20462;-58
2022/11/10 01:44:35;;;;;;;9.53;4.03;;;10.80;1.00;;;;;;5141162;27;20459;-58
2022/11/10 01:47:04;;;;;;;7.27;3.60;;;10.80;1.00;;;;;;5141473;27;20458;-60
2022/11/10 01:49:34;;;;;;;9.13;3.40;;;10.80;1.00;;;;;;5124418;27;20466;-59
2022/11/10 01:52:06;;;;;;;4.40;3.23;;;10.80;1.00;;;;;;5120601;28;20438;-60
2022/11/10 01:54:37;;;;;;;8.80;4.10;;;10.80;1.00;;;;;;5120746;27;20778;-55
2022/11/10 01:57:07;;;;;;;8.30;3.70;;;10.80;1.00;;;;;;5120507;28;20721;-58
2022/11/10 01:59:39;;;;;;;11.90;3.37;;;10.80;1.00;;;;;;5120389;28;20483;-59
2022/11/10 02:02:12;;;;;;;6.47;3.40;;;10.70;1.00;;;;;;5119562;28;20487;-58
2022/11/10 02:04:41;;;;;;;9.20;3.10;;;10.60;1.00;;;;;;5119947;28;20463;-57
2022/11/10 02:07:09;;;;;;;11.57;3.80;;;10.60;1.00;;;;;;5119658;27;20466;-58
2022/11/10 02:09:37;;;;;;;11.87;4.10;;;10.50;1.00;;;;;;5120557;28;20456;-59
2022/11/10 02:12:05;;;;;;;14.43;4.30;;;10.50;1.00;;;;;;5119891;28;20498;-57
2022/11/10 02:15:07;;;;;;;12.20;3.87;;;10.40;1.00;;;;;;5121449;27;20434;-59
2022/11/10 02:17:36;;;;;;;5.47;3.30;;;10.40;1.00;;;;;;5119570;28;20485;-56
2022/11/10 02:20:08;;;;;;;9.23;3.87;;;10.40;1.00;;;;;;5120883;27;20854;-58
2022/11/10 02:22:38;;;;;;;11.33;4.20;;;10.40;1.00;;;;;;5120325;28;20460;-60
2022/11/10 02:25:06;;;;;;;12.40;4.20;;;10.50;1.00;;;;;;5119308;28;20494;-60
2022/11/10 02:27:34;;;;;;;9.80;3.37;;;10.50;1.00;;;;;;5135664;27;20910;-57
2022/11/10 02:30:04;;;;;;;12.30;5.23;;;10.50;1.00;;;;;;5138655;27;20917;-58
2022/11/10 02:32:31;;;;;;;9.97;3.10;;;10.60;1.00;;;;;;5140511;27;20457;-60
2022/11/10 02:34:58;;;;;;;7.90;3.60;;;10.60;1.00;;;;;;5139750;27;20454;-58
2022/11/10 02:37:25;;;;;;;10.20;3.93;;;10.60;1.00;;;;;;5127851;27;20459;-60
2022/11/10 02:39:54;;;;;;;11.50;3.57;;;10.60;1.00;;;;;;5119184;28;20498;-59
2022/11/10 02:42:24;;;;;;;7.80;3.43;;;10.60;1.00;;;;;;5119602;28;20459;-59
2022/11/10 02:44:51;;;;;;;9.30;3.70;;;10.60;1.00;;;;;;5119714;28;20927;-60
2022/11/10 02:47:18;;;;;;;7.03;3.60;;;10.70;1.00;;;;;;5119636;27;20483;-58
2022/11/10 02:49:48;;;;;;;11.30;3.70;;;10.70;1.00;;;;;;5118995;28;20746;-59
2022/11/10 02:52:15;;;;;;;9.13;4.43;;;10.70;1.00;;;;;;5128623;27;20999;-59
2022/11/10 02:54:43;;;;;;;9.97;3.60;;;10.70;1.00;;;;;;5137797;27;20463;-59
2022/11/10 02:57:11;;;;;;;15.67;4.10;;;10.70;1.00;;;;;;5136465;27;20561;-60
2022/11/10 02:59:38;;;;;;;9.40;3.60;;;10.70;1.00;;;;;;5116764;27;20483;-60
2022/11/10 03:02:43;;;;;;;9.83;3.30;;;10.70;1.00;;;;;;5121799;27;20482;-60
2022/11/10 03:05:13;;;;;;;12.20;4.23;;;10.70;1.00;;;;;;5138924;27;20508;-60
2022/11/10 03:07:40;;;;;;;10.07;2.90;;;10.70;1.00;;;;;;5124634;27;20464;-57
2022/11/10 03:10:08;;;;;;;9.97;4.27;;;10.60;1.00;;;;;;5117206;28;20536;-60
2022/11/10 03:12:37;;;;;;;11.03;3.53;;;10.70;1.00;;;;;;5120648;27;20458;-60
2022/11/10 03:15:06;;;;;;;11.33;4.53;;;10.60;1.00;;;;;;5137676;27;20453;-60
2022/11/10 03:17:33;;;;;;;11.80;3.87;;;10.60;1.00;;;;;;5136367;27;20459;-57
2022/11/10 03:20:01;;;;;;;8.03;3.90;;;10.60;1.00;;;;;;5129244;27;20802;-57
2022/11/10 03:22:28;;;;;;;7.27;3.40;;;10.60;1.00;;;;;;5118041;28;20459;-57
2022/11/10 03:24:55;;;;;;;7.73;3.60;;;10.60;1.00;;;;;;5118398;28;20748;-58
2022/11/10 03:27:24;;;;;;;12.50;4.47;;;10.60;1.00;;;;;;5118413;28;20997;-60
2022/11/10 03:29:52;;;;;;;8.00;3.40;;;10.50;1.00;;;;;;5120933;27;20428;-61
2022/11/10 03:32:20;;;;;;;11.97;4.37;;;10.50;1.00;;;;;;5137937;27;20486;-59
2022/11/10 03:34:48;;;;;;;10.20;3.50;;;10.50;1.00;;;;;;5139066;27;20480;-59
2022/11/10 03:37:16;;;;;;;12.57;4.67;;;10.60;1.00;;;;;;5138755;27;20883;-59
2022/11/10 03:39:43;;;;;;;9.50;4.10;;;10.50;1.00;;;;;;5138609;27;20585;-60
2022/11/10 03:42:10;;;;;;;12.00;4.03;;;10.50;1.00;;;;;;5119250;27;20776;-60
2022/11/10 03:44:39;;;;;;;7.97;3.50;;;10.50;1.00;;;;;;5118590;28;20451;-60
2022/11/10 03:47:12;;;;;;;21.63;4.97;;;10.60;1.00;;;;;;5117764;28;20495;-60
2022/11/10 03:49:39;;;;;;;15.97;4.00;;;10.60;1.00;;;;;;5118024;28;20460;-57
2022/11/10 03:52:06;;;;;;;11.07;4.97;;;10.60;1.00;;;;;;5118394;28;20460;-60
2022/11/10 03:54:34;;;;;;;17.00;4.20;;;10.70;1.00;;;;;;5118165;28;20557;-59
2022/11/10 03:57:01;;;;;;;15.90;5.03;;;10.70;1.00;;;;;;5117944;28;20931;-60
2022/11/10 03:59:28;;;;;;;10.03;4.20;;;10.70;1.00;;;;;;5117579;28;20494;-60
2022/11/10 04:01:57;;;;;;;15.43;5.20;;;10.70;1.00;;;;;;5117336;28;20484;-59
2022/11/10 04:09:57;;;;;;;14.67;4.83;;;10.70;1.00;;;;;;5117506;28;20505;-60
2022/11/10 04:18:19;;;;;;;10.33;4.60;;;10.70;1.00;;;;;;5117393;28;20431;-59
2022/11/10 04:20:44;;;;;;;13.67;4.33;;;10.60;1.00;;;;;;5117239;28;20735;-58
2022/11/10 04:23:27;;;;;;;16.00;4.53;;;10.60;1.00;;;;;;5117271;28;20460;-59
2022/11/10 04:28:41;;;;;;;13.73;5.10;;;10.70;1.00;;;;;;5117529;28;20434;-57
2022/11/10 04:31:09;;;;;;;13.27;4.77;;;10.70;1.00;;;;;;5117366;28;20747;-57
2022/11/10 04:33:37;;;;;;;8.67;3.90;;;10.70;1.00;;;;;;5128394;28;20512;-60
2022/11/10 04:36:07;;;;;;;13.47;4.40;;;10.70;1.00;;;;;;5136181;28;20481;-58
2022/11/10 04:38:34;;;;;;;10.70;4.50;;;10.70;1.00;;;;;;5134374;28;20783;-58
2022/11/10 04:41:02;;;;;;;13.00;4.43;;;10.70;1.00;;;;;;5136612;28;20549;-59
2022/11/10 04:43:29;;;;;;;9.03;4.37;;;10.60;1.00;;;;;;5135982;28;20455;-59
2022/11/10 04:45:57;;;;;;;11.17;5.10;;;10.70;1.00;;;;;;5136926;28;20459;-54
2022/11/10 04:48:25;;;;;;;16.77;5.27;;;10.70;1.00;;;;;;5125441;27;20463;-59
2022/11/10 04:50:53;;;;;;;11.03;4.30;;;10.70;1.00;;;;;;5117378;28;20438;-59
2022/11/10 04:53:23;;;;;;;8.10;4.10;;;10.60;1.00;;;;;;5129506;28;20454;-60
2022/11/10 04:55:54;;;;;;;16.30;4.30;;;10.60;1.00;;;;;;5137602;28;20455;-60
2022/11/10 04:58:24;;;;;;;8.87;3.70;;;10.60;1.00;;;;;;5137024;28;20463;-60
2022/11/10 05:00:51;;;;;;;14.87;4.53;;;10.60;1.00;;;;;;5136400;27;20469;-58
2022/11/10 05:03:19;;;;;;;13.10;4.53;;;10.50;1.00;;;;;;5135880;28;20463;-60
2022/11/10 05:05:48;;;;;;;22.80;5.07;;;10.50;1.00;;;;;;5118334;28;20459;-60
2022/11/10 05:08:18;;;;;;;11.93;4.33;;;10.50;1.00;;;;;;5115868;28;20463;-60
2022/11/10 05:10:50;;;;;;;9.50;3.77;;;10.50;1.00;;;;;;5121715;27;20553;-60
2022/11/10 05:13:18;;;;;;;17.00;5.00;;;10.40;1.00;;;;;;5140131;27;20490;-60
2022/11/10 05:15:46;;;;;;;10.30;4.80;;;10.40;1.00;;;;;;5137803;27;20493;-61
2022/11/10 05:18:13;;;;;;;13.43;4.77;;;10.30;1.00;;;;;;5139442;27;20459;-58
2022/11/10 05:20:49;;;;;;;13.77;4.70;;;10.30;24.10;;;;;;5137756;27;20927;-60
2022/11/10 05:26:03;;;;;;;16.00;4.23;;;10.30;49.60;;;;;;5133755;27;20906;-59
2022/11/10 05:28:33;;;;;;;12.30;4.67;;;10.30;57.10;;;;;;5140387;27;20450;-60
2022/11/10 05:31:00;;;;;;;13.87;4.00;;;10.30;65.90;;;;;;5137177;27;20435;-61
2022/11/10 05:33:27;;;;;;;11.30;4.07;;;10.20;82.70;;;;;;5140093;27;20545;-59
2022/11/10 05:35:55;;;;;;;11.13;4.87;;;10.20;99.90;;;;;;5139995;27;20460;-60
2022/11/10 05:38:22;;;;;;;14.30;4.70;;;10.10;99.90;;;;;;5141153;27;20511;-59
2022/11/10 05:40:50;;;;;;;15.90;4.13;;;10.10;99.90;;;;;;5140778;27;20462;-61
2022/11/10 05:43:18;;;;;;;15.60;4.97;;;10.20;99.90;;;;;;5140523;27;20508;-60
2022/11/10 05:45:46;;;;;;;19.70;4.50;;;10.20;99.90;;;;;;5138780;27;20523;-59
2022/11/10 05:48:13;;;;;;;11.63;4.73;;;10.20;99.90;;;;;;5120778;27;20554;-61
2022/11/10 05:50:40;;;;;;;21.37;5.07;;;10.30;99.90;;;;;;5120111;28;20455;-58
2022/11/10 05:53:08;;;;;;;13.87;4.37;;;10.30;99.90;;;;;;5119401;28;20464;-59
2022/11/10 05:55:35;;;;;;;13.00;4.80;;;10.30;99.90;;;;;;5120272;28;20489;-60
2022/11/10 05:58:04;;;;;;;16.23;5.10;;;10.30;99.90;;;;;;5135348;27;20896;-60
2022/11/10 06:00:34;;;;;;;12.60;5.20;;;10.40;99.90;;;;;;5139394;27;20956;-61
2022/11/10 06:03:03;;;;;;;11.13;4.70;;;10.40;99.90;;;;;;5123085;27;20479;-59
2022/11/10 06:05:32;;;;;;;13.53;5.03;;;10.40;99.90;;;;;;5139364;27;20457;-61
2022/11/10 06:07:59;;;;;;;11.50;5.00;;;10.30;99.90;;;;;;5138747;27;20475;-61
2022/11/10 06:10:27;;;;;;;15.27;4.70;;;10.40;99.90;;;;;;5138041;27;20454;-59
2022/11/10 06:12:58;;;;;;;8.83;3.80;;;10.40;99.90;;;;;;5136838;27;20541;-61
2022/11/10 06:15:27;;;;;;;13.13;5.10;;;10.30;99.90;;;;;;5139364;27;20458;-59
2022/11/10 06:17:56;;;;;;;10.50;4.10;;;10.30;99.90;;;;;;5139036;27;20545;-60
2022/11/10 06:20:24;;;;;;;13.40;4.40;;;10.30;99.90;;;;;;5140107;27;20490;-60
2022/11/10 06:22:59;;;;;;;12.03;4.27;;;10.30;99.90;;;;;;5138874;27;20476;-61
2022/11/10 06:25:28;;;;;;;9.67;3.97;;;10.30;99.90;;;;;;5139427;27;20462;-61
2022/11/10 06:27:55;;;;;;;17.57;4.50;;;10.30;99.90;;;;;;5135085;27;20805;-61
2022/11/10 06:30:23;;;;;;;13.10;4.30;;;10.30;99.90;;;;;;5128388;27;20459;-61
2022/11/10 06:32:53;;;;;;;11.53;4.53;;;10.20;99.90;;;;;;5138179;27;20720;-61
2022/11/10 06:35:25;;;;;;;17.17;4.77;;;10.30;99.90;;;;;;5136262;27;20869;-59
2022/11/10 06:38:00;;;;;;;13.40;4.27;;;10.30;99.90;;;;;;5136981;27;20447;-57
2022/11/10 06:40:28;;;;;;;10.43;4.23;;;10.30;99.90;;;;;;5136740;27;20481;-62
2022/11/10 06:42:55;;;;;;;11.97;3.97;;;10.30;99.90;;;;;;5138796;27;20801;-62
2022/11/10 06:45:27;;;;;;;8.93;4.60;;;10.30;99.90;;;;;;5137600;27;20463;-62
2022/11/10 06:48:00;;;;;;;17.67;4.73;;;10.20;99.90;;;;;;5121798;27;20458;-61
2022/11/10 06:50:29;;;;;;;17.00;5.50;;;10.20;99.90;;;;;;5138614;27;20546;-58
2022/11/10 06:52:57;;;;;;;13.47;5.90;;;10.20;99.90;;;;;;5139301;27;20870;-59
2022/11/10 06:55:26;;;;;;;16.77;4.60;;;10.10;99.90;;;;;;5138598;27;20437;-61
2022/11/10 06:57:54;;;;;;;10.90;4.60;;;10.10;99.90;;;;;;5137386;27;20466;-57
2022/11/10 07:00:21;;;;;;;12.13;5.73;;;10.10;99.90;;;;;;5138584;27;20595;-61
2022/11/10 07:02:49;;;;;;;17.33;4.90;;;10.10;99.90;;;;;;5139078;27;20522;-61
2022/11/10 07:05:16;;;;;;;14.40;4.97;;;10.00;99.90;;;;;;5138992;27;20722;-58
2022/11/10 07:07:45;;;;;;;20.50;5.73;;;10.00;99.90;;;;;;5125339;27;20822;-62
2022/11/10 07:10:12;;;;;;;20.43;5.10;;;10.00;99.90;;;;;;5119575;28;20466;-61
2022/11/10 07:12:42;;;;;;;17.70;6.33;;;10.00;99.90;;;;;;5118336;28;20554;-61
2022/11/10 07:15:10;;;;;;;9.17;4.43;;;10.00;99.90;;;;;;5117138;27;20471;-59
2022/11/10 07:17:40;;;;;;;8.03;3.77;;;10.00;99.90;;;;;;5124921;27;20433;-60
2022/11/10 07:20:09;;;;;;;12.27;4.37;;;10.00;99.90;;;;;;5137581;27;20551;-61
2022/11/10 07:22:36;;;;;;;10.67;5.13;;;10.00;99.90;;;;;;5138664;27;20478;-62
2022/11/10 07:25:06;;;;;;;15.33;4.67;;;10.10;99.90;;;;;;5139614;27;20440;-60
2022/11/10 07:27:33;;;;;;;11.73;4.10;;;10.00;99.90;;;;;;5139023;27;20905;-60
2022/11/10 07:30:00;;;;;;;10.13;4.00;;;10.00;99.90;;;;;;5139292;27;20944;-60
2022/11/10 07:32:28;;;;;;;9.47;4.20;;;10.10;99.90;;;;;;5138349;27;20464;-60
2022/11/10 07:34:55;;;;;;;11.57;4.30;;;10.10;99.90;;;;;;5137932;27;20433;-61
2022/11/10 07:37:22;;;;;;;12.73;5.13;;;10.10;99.90;;;;;;5138188;27;20433;-62
2022/11/10 07:39:50;;;;;;;8.17;4.20;;;10.20;99.90;;;;;;5119235;27;20483;-60
2022/11/10 07:42:18;;;;;;;9.00;4.70;;;10.30;99.90;;;;;;5118344;28;20864;-61
2022/11/10 07:44:45;;;;;;;17.90;4.80;;;10.40;99.90;;;;;;5118276;28;20473;-60
2022/11/10 07:47:14;;;;;;;11.40;5.43;;;10.40;91.40;;;;;;5117787;28;20444;-61
2022/11/10 07:49:41;;;;;;;13.40;4.50;;;10.40;67.80;;;;;;5118372;28;20462;-59
2022/11/10 07:52:11;;;;;;;9.40;4.53;;;10.40;53.10;;;;;;5118230;28;20967;-60
2022/11/10 07:54:38;;;;;;;16.07;4.07;;;10.40;30.00;;;;;;5118182;28;20459;-61
2022/11/10 07:57:10;;;;;;;19.07;5.07;;;10.40;34.30;;;;;;5117547;28;20462;-59
2022/11/10 07:59:38;;;;;;;18.40;6.00;;;10.40;25.20;;;;;;5117973;28;20487;-61
2022/11/10 08:02:07;;;;;;;9.73;4.57;;;10.50;31.00;;;;;;5117368;28;20484;-60
2022/11/10 08:04:34;;;;;;;15.13;5.80;;;10.40;11.40;;;;;;5117962;28;20463;-60
2022/11/10 08:07:01;;;;;;;8.67;3.90;;;10.40;19.80;;;;;;5117171;28;20464;-59
2022/11/10 08:09:29;;;;;;;10.37;4.13;;;10.50;31.50;;;;;;5117811;28;20483;-59
2022/11/10 08:11:56;;;;;;;14.20;5.20;;;10.50;9.40;;;;;;5117784;28;20918;-60
2022/11/10 08:14:23;;;;;;;12.30;4.53;;;10.50;1.00;;;;;;5117837;28;20460;-60
2022/11/10 08:16:54;;;;;;;10.40;4.80;;;10.50;1.00;;;;;;5117807;28;20456;-61
2022/11/10 08:19:21;;;;;;;13.37;5.00;;;10.60;1.00;;;;;;5117496;28;20771;-62
2022/11/10 08:21:48;;;;;;;8.90;3.83;;;10.60;1.00;;;;;;5125003;28;20426;-60
2022/11/10 08:24:16;;;;;;;11.57;4.20;;;10.60;1.00;;;;;;5138340;28;20742;-58
2022/11/10 08:26:43;;;;;;;12.43;4.40;;;10.60;1.00;;;;;;5138324;28;20758;-59
2022/11/10 08:29:10;;;;;;;17.40;4.90;;;10.60;1.00;;;;;;5138016;28;20458;-58
2022/11/10 08:31:38;;;;;;;16.67;4.90;;;10.70;1.00;;;;;;5138429;28;20421;-62
2022/11/10 08:34:06;;;;;;;18.57;6.20;;;10.80;1.00;;;;;;5119130;27;20884;-59
2022/11/10 08:36:34;;;;;;;11.53;4.27;;;10.90;1.00;;;;;;5116801;28;20455;-61
2022/11/10 08:39:01;;;;;;;12.17;5.20;;;10.90;1.00;;;;;;5117702;28;20459;-60
2022/11/10 08:41:28;;;;;;;11.40;4.03;;;10.80;1.00;;;;;;5117320;28;20756;-60
2022/11/10 08:44:00;;;;;;;14.60;4.50;;;11.00;1.00;;;;;;5117333;28;20440;-60
2022/11/10 08:46:30;;;;;;;13.20;5.07;;;11.00;1.00;;;;;;5119013;28;20756;-62
2022/11/10 08:48:57;;;;;;;10.90;4.20;;;11.10;1.00;;;;;;5122068;28;20469;-62
2022/11/10 08:51:25;;;;;;;8.87;4.13;;;11.10;1.00;;;;;;5120951;28;20447;-61
2022/11/10 08:53:53;;;;;;;15.30;5.10;;;11.20;1.00;;;;;;5121406;28;20548;-60
2022/11/10 08:56:20;;;;;;;13.90;4.40;;;11.30;1.00;;;;;;5121024;28;20529;-58
2022/11/10 08:58:49;;;;;;;12.30;4.07;;;11.50;1.00;;;;;;5121526;28;20464;-61
2022/11/10 09:01:16;;;;;;;10.67;4.13;;;11.70;1.00;;;;;;5120765;27;20499;-58
2022/11/10 09:03:43;;;;;;;11.50;4.17;;;11.90;1.00;;;;;;5121515;28;20912;-62
2022/11/10 09:06:10;;;;;;;9.63;4.00;;;12.10;1.00;;;;;;5121405;28;20461;-62
2022/11/10 09:08:39;;;;;;;10.30;4.30;;;12.20;1.00;;;;;;5121759;28;20553;-61
2022/11/10 09:11:06;;;;;;;11.73;4.17;;;12.50;1.00;;;;;;5121069;28;20498;-61
2022/11/10 09:13:36;;;;;;;11.37;5.33;;;12.80;1.00;;;;;;5121139;28;20463;-59
2022/11/10 09:16:04;;;;;;;14.87;5.83;;;13.00;1.00;;;;;;5121297;28;20444;-61
2022/11/10 09:18:31;;;;;;;9.03;4.67;;;13.00;1.00;;;;;;5121285;28;20880;-61
2022/11/10 09:21:00;;;;;;;10.37;3.60;;;12.70;1.00;;;;;;5121162;28;20790;-61
2022/11/10 09:23:28;;;;;;;10.47;4.57;;;12.60;1.00;;;;;;5121186;28;20951;-61
2022/11/10 09:25:57;;;;;;;15.43;5.03;;;12.50;1.00;;;;;;5120739;28;20464;-61
2022/11/10 09:28:24;;;;;;;10.50;4.23;;;12.50;1.00;;;;;;5121045;28;20774;-61
2022/11/10 09:30:52;;;;;;;10.73;3.80;;;12.60;1.00;;;;;;5121002;28;20466;-62
2022/11/10 09:33:20;;;;;;;15.83;4.47;;;12.60;1.00;;;;;;5125407;27;20458;-61
2022/11/10 09:35:49;;;;;;;11.20;4.23;;;12.60;1.00;;;;;;5139859;27;20462;-59
2022/11/10 09:38:17;;;;;;;9.70;3.73;;;12.70;1.00;;;;;;5131314;27;20498;-60
2022/11/10 09:40:54;;;;;;;19.77;5.10;;;12.70;1.00;;;;;;5120579;28;20522;-61
2022/11/10 09:43:31;;;;;;;15.83;4.43;;;12.70;1.00;;;;;;5121629;27;20545;-61
2022/11/10 09:46:03;;;;;;;13.47;3.93;;;13.10;1.00;;;;;;5141067;27;20552;-59
2022/11/10 09:48:35;;;;;;;12.77;3.90;;;13.90;1.00;;;;;;5131984;27;20463;-60
2022/11/10 09:51:06;;;;;;;7.40;3.43;;;14.40;99.90;;;;;;5120554;28;20461;-61
2022/11/10 09:53:42;;;;;;;16.03;4.97;;;14.50;99.90;;;;;;5119832;27;20528;-62
2022/11/10 09:56:18;;;;;;;11.90;4.03;;;14.60;99.90;;;;;;5120270;28;20463;-59
2022/11/10 09:58:49;;;;;;;13.13;4.13;;;14.80;99.90;;;;;;5119488;28;20734;-61
2022/11/10 10:01:28;;;;;;;14.47;4.70;;;15.00;99.90;;;;;;5119782;28;20598;-62
2022/11/10 10:04:08;;;;;;;9.00;3.90;;;15.00;99.90;;;;;;5119736;28;20459;-61
2022/11/10 10:06:43;;;;;;;13.57;4.23;;;15.10;99.90;;;;;;5120592;28;20467;-58
2022/11/10 10:09:19;;;;;;;10.90;3.90;;;15.30;99.90;;;;;;5119732;28;20463;-61
2022/11/10 10:12:00;;;;;;;9.93;4.20;;;15.60;99.90;;;;;;5120096;28;20433;-59
2022/11/10 10:14:49;;;;;;;13.63;6.60;;;15.70;99.90;;;;;;5120209;28;20463;-61
2022/11/10 10:17:27;;;;;;;12.27;5.50;;;15.70;99.90;;;;;;5119633;28;20470;-62
2022/11/10 10:20:04;;;;;;;17.63;4.13;;;15.70;99.90;;;;;;5119574;28;20481;-59
2022/11/10 10:22:51;;;;;;;9.83;3.90;;;15.50;99.90;;;;;;5120037;28;20487;-62
2022/11/10 10:25:23;;;;;;;6.80;3.97;;;15.30;99.90;;;;;;5119748;27;20463;-61
2022/11/10 10:27:59;;;;;;;12.60;4.40;;;15.50;99.90;;;;;;5119903;28;20441;-62
2022/11/10 10:30:28;;;;;;;9.77;3.63;;;15.90;99.90;;;;;;5119793;28;20455;-61
2022/11/10 10:33:03;;;;;;;12.37;4.67;;;16.10;99.90;;;;;;5119728;28;20508;-62
2022/11/10 10:35:33;;;;;;;12.73;3.87;;;15.80;99.90;;;;;;5117857;28;20455;-61
2022/11/10 10:38:02;;;;;;;12.30;4.50;;;16.00;99.90;;;;;;5119608;28;20469;-61
2022/11/10 10:40:31;;;;;;;9.03;4.17;;;16.10;99.90;;;;;;5126105;27;20469;-58
2022/11/10 10:43:00;;;;;;;6.57;3.70;;;16.00;99.90;;;;;;5138467;27;20458;-62
2022/11/10 10:45:29;;;;;;;9.23;4.57;;;16.40;99.90;;;;;;5138099;27;20636;-63
2022/11/10 10:47:58;;;;;;;8.50;3.70;;;16.40;99.90;;;;;;5120241;27;20550;-60
2022/11/10 10:50:29;;;;;;;14.03;4.30;;;16.30;99.90;;;;;;5118099;28;20463;-62
2022/11/10 10:53:14;;;;;;;9.10;3.60;;;16.40;99.90;;;;;;5119457;28;20455;-63
2022/11/10 10:55:58;;;;;;;12.80;6.33;;;16.40;99.90;;;;;;5119439;28;20714;-62
2022/11/10 10:58:28;;;;;;;9.47;3.60;;;16.40;99.90;;;;;;5118915;28;20460;-61
2022/11/10 11:01:04;;;;;;;8.50;4.70;;;16.60;99.90;;;;;;5119912;27;20943;-63
2022/11/10 11:03:42;;;;;;;12.70;5.37;;;16.60;99.90;;;;;;5119216;28;20469;-61
2022/11/10 11:06:21;;;;;;;13.13;4.57;;;16.60;99.90;;;;;;5118762;28;20763;-61
2022/11/10 11:08:56;;;;;;;10.30;4.37;;;16.40;99.90;;;;;;5134805;27;20546;-62
2022/11/10 11:11:29;;;;;;;11.57;4.27;;;16.40;99.90;;;;;;5137805;27;20557;-62
2022/11/10 11:14:21;;;;;;;10.53;4.07;;;16.00;99.90;;;;;;5127161;27;20465;-62
2022/11/10 11:16:52;;;;;;;10.97;4.53;;;15.90;99.90;;;;;;5118246;28;20896;-61
2022/11/10 11:19:21;;;;;;;8.03;4.00;;;15.90;99.90;;;;;;5135284;27;20465;-62
2022/11/10 11:22:03;;;;;;;13.13;4.50;;;16.00;99.90;;;;;;5117493;28;20494;-62
2022/11/10 11:24:38;;;;;;;11.90;5.10;;;16.20;99.90;;;;;;5118646;28;20880;-62
2022/11/10 11:27:18;;;;;;;11.53;4.10;;;16.30;99.90;;;;;;5121863;27;20450;-62
2022/11/10 11:29:57;;;;;;;15.23;5.03;;;16.30;99.90;;;;;;5125677;27;20909;-62
2022/11/10 11:32:56;;;;;;;7.70;3.17;;;16.50;99.90;;;;;;5138812;27;20507;-61
2022/11/10 11:35:31;;;;;;;10.63;4.50;;;16.70;99.90;;;;;;5124201;27;20437;-61
2022/11/10 11:38:08;;;;;;;11.77;3.50;;;16.60;99.90;;;;;;5139128;27;20895;-62
2022/11/10 11:40:46;;;;;;;10.90;3.80;;;16.80;99.90;;;;;;5138980;27;20930;-62
2022/11/10 11:43:29;;;;;;;7.30;2.90;;;17.00;99.90;;;;;;5138447;27;20458;-61
2022/11/10 11:46:05;;;;;;;10.83;3.30;;;17.10;99.90;;;;;;5138846;27;20945;-60
2022/11/10 11:49:01;;;;;;;7.37;3.30;;;16.90;99.90;;;;;;5138932;27;20558;-63
2022/11/10 11:51:34;;;;;;;7.43;3.00;;;16.40;99.90;;;;;;5138739;27;20458;-61
2022/11/10 11:54:18;;;;;;;9.03;3.00;;;16.20;99.90;;;;;;5138628;27;20515;-60
2022/11/10 11:56:49;;;;;;;8.40;3.83;;;16.20;99.90;;;;;;5138982;27;20451;-62
2022/11/10 11:59:30;;;;;;;8.90;3.27;;;16.40;99.90;;;;;;5137548;27;20436;-60
2022/11/10 12:02:27;;;;;;;9.37;4.17;;;16.40;99.90;;;;;;5138331;27;20505;-60
2022/11/10 12:05:08;;;;;;;6.40;2.40;;;16.50;99.90;;;;;;5134137;27;20520;-63
2022/11/10 12:07:49;;;;;;;5.73;3.30;;;16.50;99.90;;;;;;5136745;27;20458;-62
2022/11/10 12:10:29;;;;;;;9.80;3.27;;;16.50;99.90;;;;;;5127356;27;20768;-61
2022/11/10 12:13:25;;;;;;;8.97;2.90;;;16.90;99.90;;;;;;5117354;28;20829;-61
2022/11/10 12:15:58;;;;;;;11.13;2.50;;;17.00;99.90;;;;;;5127418;27;20470;-61
2022/11/10 12:18:33;;;;;;;9.00;3.70;;;16.80;99.90;;;;;;5116740;27;20463;-62
2022/11/10 12:21:12;;;;;;;9.53;3.37;;;16.80;99.90;;;;;;5124065;27;20489;-61
2022/11/10 12:23:50;;;;;;;9.07;3.17;;;17.20;99.90;;;;;;5137317;27;20519;-62
2022/11/10 12:26:30;;;;;;;16.97;3.73;;;17.30;99.90;;;;;;5136995;27;20450;-60
2022/11/10 12:29:05;;;;;;;7.73;2.77;;;17.20;99.90;;;;;;5137802;28;20458;-58
2022/11/10 12:31:37;;;;;;;17.73;4.93;;;17.10;99.90;;;;;;5127679;27;20788;-62
2022/11/10 12:34:10;;;;;;;9.53;2.70;;;16.90;99.90;;;;;;5116863;28;20463;-61
2022/11/10 12:36:39;;;;;;;5.93;2.53;;;16.80;99.90;;;;;;5116826;28;20741;-62
2022/11/10 12:39:19;;;;;;;8.07;3.40;;;16.80;99.90;;;;;;5116854;28;20888;-61
2022/11/10 12:41:53;;;;;;;5.90;2.60;;;16.70;99.90;;;;;;5123520;28;20511;-62
2022/11/10 12:44:25;;;;;;;9.33;2.80;;;16.80;99.90;;;;;;5137631;28;20559;-58
2022/11/10 12:47:00;;;;;;;6.57;2.57;;;16.70;99.90;;;;;;5138242;28;20560;-61
2022/11/10 12:49:33;;;;;;;10.00;3.47;;;16.60;99.90;;;;;;5137346;28;20894;-63
2022/11/10 12:52:12;;;;;;;5.37;2.73;;;16.60;99.90;;;;;;5136071;28;20458;-61
2022/11/10 12:54:48;;;;;;;7.73;2.90;;;16.30;99.90;;;;;;5138180;27;20556;-62
2022/11/10 12:57:18;;;;;;;6.20;2.77;;;16.30;99.90;;;;;;5134326;28;20433;-60
2022/11/10 12:59:55;;;;;;;5.80;2.70;;;16.40;99.90;;;;;;5116125;28;20461;-59
2022/11/10 13:02:27;;;;;;;5.27;2.33;;;16.30;99.90;;;;;;5119655;28;20485;-62
2022/11/10 13:05:37;;;;;;;5.77;2.60;;;16.10;99.90;;;;;;5138136;28;20786;-60
2022/11/10 13:08:36;;;;;;;7.67;3.07;;;16.10;99.90;;;;;;5052724;28;20462;-60
2022/11/10 13:11:06;;;;;;;4.93;3.23;;;16.00;99.90;;;;;;5098753;27;20460;-59
2022/11/10 13:13:47;;;;;;;6.00;2.40;;;15.60;99.90;;;;;;5127255;28;20763;-62
2022/11/10 13:16:48;;;;;;;6.73;2.90;;;15.50;99.90;;;;;;5118105;28;20781;-59
2022/11/10 13:19:48;;;;;;;8.30;2.60;;;15.40;99.90;;;;;;5116979;28;20462;-62
2022/11/10 13:22:39;;;;;;;11.00;3.50;;;15.40;99.90;;;;;;5117513;28;20491;-57
2022/11/10 13:25:55;;;;;;;6.77;2.63;;;15.20;99.90;;;;;;5107618;28;20760;-60